createdAt,value
2018-07-10T00:02:24.551Z,19.40
2018-07-10T00:05:20.507Z,19.40
2018-07-10T00:12:27.276Z,19.20
2018-07-10T00:14:56.824Z,19.10
2018-07-10T00:17:25.954Z,19.20
2018-07-10T00:19:55.128Z,19.10
2018-07-10T00:22:24.798Z,18.90
2018-07-10T00:24:53.978Z,18.90
2018-07-10T00:27:23.117Z,18.90
2018-07-10T00:29:52.357Z,18.80
2018-07-10T00:32:21.502Z,18.80
2018-07-10T00:34:50.672Z,18.80
2018-07-10T00:37:20.273Z,18.80
2018-07-10T00:39:49.418Z,18.80
2018-07-10T00:42:18.556Z,18.70
2018-07-10T00:44:48.122Z,18.60
2018-07-10T00:47:17.295Z,18.60
2018-07-10T00:49:46.453Z,18.50
2018-07-10T00:52:26.288Z,18.50
2018-07-10T00:54:55.447Z,18.70
2018-07-10T00:57:24.913Z,18.90
2018-07-10T00:59:54.675Z,19.10
2018-07-10T01:02:23.858Z,19.40
2018-07-10T01:04:53.293Z,19.60
2018-07-10T01:07:22.638Z,19.70
2018-07-10T01:09:51.823Z,19.90
2018-07-10T01:12:21.238Z,19.90
2018-07-10T01:14:50.424Z,20.00
2018-07-10T01:17:19.765Z,20.10
2018-07-10T01:19:49.104Z,20.20
2018-07-10T01:22:18.317Z,20.20
2018-07-10T01:24:47.568Z,20.20
2018-07-10T01:27:17.105Z,20.20
2018-07-10T01:29:48.242Z,20.20
2018-07-10T01:32:17.842Z,20.00
2018-07-10T01:34:46.942Z,20.00
2018-07-10T01:37:16.090Z,19.90
2018-07-10T01:39:45.516Z,19.90
2018-07-10T01:42:14.669Z,19.80
2018-07-10T01:44:43.827Z,19.80
2018-07-10T01:47:13.236Z,19.80
2018-07-10T01:49:42.420Z,19.60
2018-07-10T01:52:11.623Z,19.60
2018-07-10T01:54:41.727Z,19.50
2018-07-10T01:57:10.831Z,19.50
2018-07-10T01:59:40.053Z,19.20
2018-07-10T02:02:09.657Z,18.90
2018-07-10T02:04:38.827Z,18.70
2018-07-10T02:07:07.945Z,18.50
2018-07-10T02:09:37.457Z,18.50
2018-07-10T02:12:06.647Z,18.40
2018-07-10T02:14:35.823Z,18.50
2018-07-10T02:17:05.085Z,18.30
2018-07-10T02:19:34.268Z,18.30
2018-07-10T02:22:03.461Z,18.40
2018-07-10T02:24:32.776Z,18.50
2018-07-10T02:27:01.983Z,18.60
2018-07-10T02:29:31.187Z,18.70
2018-07-10T02:32:00.415Z,18.50
2018-07-10T02:34:29.573Z,18.30
2018-07-10T02:36:58.737Z,18.20
2018-07-10T02:39:29.183Z,18.10
2018-07-10T02:41:58.360Z,18.00
2018-07-10T02:44:27.660Z,18.10
2018-07-10T02:46:56.859Z,17.90
2018-07-10T02:49:26.030Z,17.60
2018-07-10T02:51:59.629Z,17.70
2018-07-10T02:54:31.253Z,17.70
2018-07-10T02:57:00.727Z,17.70
2018-07-10T02:59:36.083Z,17.60
2018-07-10T03:02:07.070Z,17.60
2018-07-10T03:04:39.007Z,17.60
2018-07-10T03:09:36.989Z,17.50
2018-07-10T03:12:06.177Z,17.50
2018-07-10T03:14:35.743Z,17.50
2018-07-10T03:17:04.929Z,17.50
2018-07-10T03:19:34.121Z,17.50
2018-07-10T03:22:03.645Z,17.50
2018-07-10T03:24:32.843Z,17.40
2018-07-10T03:27:02.049Z,17.40
2018-07-10T03:29:31.987Z,17.30
2018-07-10T03:32:01.177Z,17.30
2018-07-10T03:34:30.549Z,17.30
2018-07-10T03:37:00.301Z,17.30
2018-07-10T03:39:29.545Z,17.10
2018-07-10T03:41:58.955Z,17.00
2018-07-10T03:44:29.663Z,16.90
2018-07-10T03:46:58.903Z,17.00
2018-07-10T03:49:28.281Z,17.10
2018-07-10T03:51:58.023Z,17.00
2018-07-10T03:54:27.225Z,17.00
2018-07-10T03:56:56.430Z,16.80
2018-07-10T03:59:26.085Z,17.00
2018-07-10T04:04:24.335Z,17.10
2018-07-10T04:06:53.907Z,17.10
2018-07-10T04:09:23.123Z,17.20
2018-07-10T04:11:52.455Z,17.00
2018-07-10T04:14:23.541Z,16.90
2018-07-10T04:16:53.393Z,17.00
2018-07-10T04:19:23.413Z,17.10
2018-07-10T04:21:55.276Z,17.20
2018-07-10T04:24:25.583Z,17.20
2018-07-10T04:28:02.485Z,17.20
2018-07-10T04:30:40.600Z,17.30
2018-07-10T04:35:38.902Z,17.40
2018-07-10T04:40:37.233Z,17.60
2018-07-10T04:43:08.151Z,17.60
2018-07-10T04:45:42.221Z,17.50
2018-07-10T04:48:22.416Z,17.40
2018-07-10T04:50:56.873Z,17.50
2018-07-10T04:53:33.619Z,17.50
2018-07-10T04:56:03.488Z,17.60
2018-07-10T04:58:33.033Z,17.70
2018-07-10T05:01:04.079Z,17.70
2018-07-10T05:03:33.617Z,17.60
2018-07-10T05:06:06.118Z,17.60
2018-07-10T05:08:35.449Z,17.60
2018-07-10T05:11:04.691Z,17.70
2018-07-10T05:13:33.993Z,17.70
2018-07-10T05:16:05.289Z,17.60
2018-07-10T05:18:35.593Z,17.70
2018-07-10T05:21:09.843Z,17.70
2018-07-10T05:23:40.151Z,17.80
2018-07-10T05:28:38.030Z,17.90
2018-07-10T05:31:07.484Z,17.90
2018-07-10T05:33:36.910Z,17.80
2018-07-10T05:36:06.105Z,17.70
2018-07-10T05:38:37.579Z,17.70
2018-07-10T05:41:07.306Z,17.70
2018-07-10T05:43:40.254Z,17.90
2018-07-10T05:46:09.452Z,18.00
2018-07-10T05:48:38.708Z,18.10
2018-07-10T05:51:08.066Z,18.30
2018-07-10T05:53:37.244Z,18.40
2018-07-10T05:56:06.396Z,18.50
2018-07-10T05:58:35.761Z,18.50
2018-07-10T06:01:05.036Z,18.60
2018-07-10T06:03:34.216Z,18.60
2018-07-10T06:06:03.534Z,18.60
2018-07-10T06:08:32.766Z,18.60
2018-07-10T06:15:59.710Z,18.40
2018-07-10T06:18:29.028Z,18.60
2018-07-10T06:20:58.402Z,18.60
2018-07-10T06:23:32.523Z,18.70
2018-07-10T06:26:01.938Z,18.90
2018-07-10T06:28:31.143Z,18.90
2018-07-10T06:31:04.644Z,18.90
2018-07-10T06:33:33.834Z,18.90
2018-07-10T06:36:13.598Z,19.00
2018-07-10T06:38:46.770Z,19.10
2018-07-10T06:41:16.548Z,19.30
2018-07-10T06:43:48.865Z,19.40
2018-07-10T06:46:20.830Z,19.60
2018-07-10T06:51:20.764Z,19.70
2018-07-10T06:53:53.146Z,19.60
2018-07-10T06:56:26.285Z,19.60
2018-07-10T06:58:55.598Z,19.70
2018-07-10T07:01:25.430Z,19.70
2018-07-10T07:03:57.610Z,19.70
2018-07-10T07:08:56.094Z,19.80
2018-07-10T07:11:26.390Z,19.80
2018-07-10T07:13:55.788Z,20.00
2018-07-10T07:16:24.994Z,19.90
2018-07-10T07:18:54.169Z,20.10
2018-07-10T07:21:23.602Z,20.10
2018-07-10T07:23:52.742Z,19.90
2018-07-10T07:26:22.334Z,19.90
2018-07-10T07:28:52.136Z,20.10
2018-07-10T07:33:49.987Z,20.70
2018-07-10T07:36:19.330Z,20.80
2018-07-10T07:38:49.478Z,21.00
2018-07-10T07:43:47.752Z,21.10
2018-07-10T07:46:16.907Z,20.80
2018-07-10T07:48:46.079Z,21.00
2018-07-10T07:51:15.430Z,21.20
2018-07-10T07:53:44.559Z,21.30
2018-07-10T07:56:13.738Z,21.60
2018-07-10T07:58:42.999Z,21.90
2018-07-10T08:01:12.172Z,21.70
2018-07-10T08:03:41.445Z,21.90
2018-07-10T08:06:10.698Z,21.90
2018-07-10T08:08:39.898Z,22.30
2018-07-10T08:11:09.120Z,22.30
2018-07-10T08:13:38.992Z,22.20
2018-07-10T08:16:08.626Z,22.00
2018-07-10T08:18:37.846Z,21.70
2018-07-10T08:21:07.111Z,21.70
2018-07-10T08:23:36.328Z,21.90
2018-07-10T08:26:05.545Z,21.80
2018-07-10T08:28:35.111Z,21.80
2018-07-10T08:31:04.516Z,22.00
2018-07-10T08:33:33.957Z,21.40
2018-07-10T08:36:04.414Z,21.60
2018-07-10T08:38:39.366Z,22.00
2018-07-10T08:41:13.176Z,22.20
2018-07-10T08:43:42.554Z,22.30
2018-07-10T08:46:12.409Z,22.00
2018-07-10T08:48:41.690Z,22.20
2018-07-10T08:51:10.892Z,22.20
2018-07-10T08:53:40.594Z,22.20
2018-07-10T08:56:09.776Z,22.40
2018-07-10T08:58:39.089Z,22.50
2018-07-10T09:01:08.936Z,22.80
2018-07-10T09:03:38.130Z,23.10
2018-07-10T09:08:36.448Z,22.90
2018-07-10T09:13:34.378Z,22.70
2018-07-10T09:16:03.766Z,22.70
2018-07-10T09:18:33.214Z,22.70
2018-07-10T09:21:02.390Z,22.40
2018-07-10T09:23:32.822Z,22.50
2018-07-10T09:26:02.037Z,22.60
2018-07-10T09:28:36.814Z,22.90
2018-07-10T09:31:06.807Z,22.90
2018-07-10T09:33:36.690Z,22.90
2018-07-10T09:36:06.352Z,23.20
2018-07-10T09:38:36.663Z,23.20
2018-07-10T09:41:07.775Z,23.20
2018-07-10T09:43:37.360Z,22.90
2018-07-10T09:46:06.605Z,22.80
2018-07-10T09:48:36.418Z,23.00
2018-07-10T09:51:05.636Z,23.20
2018-07-10T09:53:34.883Z,22.70
2018-07-10T09:58:34.064Z,22.80
2018-07-10T10:01:34.764Z,23.00
2018-07-10T10:04:04.877Z,23.00
2018-07-10T10:06:34.939Z,22.80
2018-07-10T10:09:04.843Z,22.90
2018-07-10T10:11:34.100Z,22.50
2018-07-10T10:14:03.270Z,22.70
2018-07-10T10:16:32.489Z,22.80
2018-07-10T10:19:02.749Z,23.10
2018-07-10T10:21:32.001Z,23.20
2018-07-10T10:24:01.172Z,23.20
2018-07-10T10:28:59.417Z,23.10
2018-07-10T10:31:28.686Z,23.10
2018-07-10T10:33:58.284Z,23.00
2018-07-10T10:36:27.495Z,22.80
2018-07-10T10:38:57.402Z,22.70
2018-07-10T10:41:26.896Z,22.90
2018-07-10T10:43:56.069Z,23.00
2018-07-10T10:46:26.913Z,23.10
2018-07-10T10:48:56.162Z,23.30
2018-07-10T10:51:25.394Z,23.00
2018-07-10T10:53:54.802Z,22.80
2018-07-10T10:56:23.984Z,22.90
2018-07-10T10:58:53.206Z,22.90
2018-07-10T11:01:22.903Z,22.60
2018-07-10T11:03:52.944Z,22.70
2018-07-10T11:06:22.150Z,22.50
2018-07-10T11:08:51.666Z,22.90
2018-07-10T11:11:20.916Z,23.00
2018-07-10T11:13:50.120Z,23.10
2018-07-10T11:16:19.642Z,23.20
2018-07-10T11:18:56.764Z,23.20
2018-07-10T11:21:33.752Z,23.00
2018-07-10T11:24:03.042Z,23.10
2018-07-10T11:26:36.486Z,23.10
2018-07-10T11:29:06.732Z,22.90
2018-07-10T11:31:36.911Z,23.10
2018-07-10T11:34:06.726Z,23.30
2018-07-10T11:36:36.494Z,23.50
2018-07-10T11:39:09.995Z,23.30
2018-07-10T11:41:41.714Z,23.10
2018-07-10T11:44:10.925Z,23.00
2018-07-10T11:46:40.391Z,23.30
2018-07-10T11:49:10.184Z,23.70
2018-07-10T11:51:39.433Z,23.50
2018-07-10T11:54:08.769Z,23.70
2018-07-10T11:56:37.941Z,24.00
2018-07-10T11:59:07.251Z,23.80
2018-07-10T12:01:37.033Z,23.80
2018-07-10T12:04:06.370Z,23.80
2018-07-10T12:06:47.062Z,23.70
2018-07-10T12:09:16.827Z,23.80
2018-07-10T12:11:46.397Z,23.90
2018-07-10T12:14:15.853Z,23.80
2018-07-10T12:16:44.997Z,23.80
2018-07-10T12:19:15.733Z,23.70
2018-07-10T12:21:44.984Z,23.80
2018-07-10T12:24:14.168Z,23.60
2018-07-10T12:26:43.601Z,23.60
2018-07-10T12:29:12.806Z,23.60
2018-07-10T12:31:42.033Z,23.80
2018-07-10T12:34:11.677Z,23.80
2018-07-10T12:36:40.882Z,23.60
2018-07-10T12:39:10.078Z,23.20
2018-07-10T12:41:39.796Z,23.10
2018-07-10T12:44:09.025Z,23.20
2018-07-10T12:46:38.236Z,23.30
2018-07-10T12:49:07.609Z,23.60
2018-07-10T12:51:36.813Z,23.40
2018-07-10T12:54:06.019Z,23.70
2018-07-10T12:56:35.363Z,23.80
2018-07-10T12:59:04.575Z,24.00
2018-07-10T13:04:02.855Z,24.10
2018-07-10T13:06:32.103Z,24.10
2018-07-10T13:09:01.977Z,24.30
2018-07-10T13:11:31.517Z,24.60
2018-07-10T13:14:00.690Z,25.00
2018-07-10T13:16:29.886Z,24.80
2018-07-10T13:21:28.172Z,25.60
2018-07-10T13:23:57.928Z,25.30
2018-07-10T13:26:27.276Z,25.20
2018-07-10T13:28:56.414Z,25.00
2018-07-10T13:31:26.386Z,25.30
2018-07-10T13:33:56.878Z,25.60
2018-07-10T13:36:26.098Z,25.10
2018-07-10T13:38:55.302Z,25.20
2018-07-10T13:41:24.632Z,25.40
2018-07-10T13:43:54.020Z,25.30
2018-07-10T13:46:23.214Z,25.20
2018-07-10T13:48:52.660Z,25.30
2018-07-10T13:51:21.828Z,25.60
2018-07-10T13:53:51.010Z,25.60
2018-07-10T13:56:20.335Z,25.20
2018-07-10T13:58:49.680Z,25.70
2018-07-10T14:01:19.452Z,26.10
2018-07-10T14:08:46.366Z,25.70
2018-07-10T14:11:15.778Z,26.30
2018-07-10T14:13:45.082Z,26.30
2018-07-10T14:16:14.242Z,26.00
2018-07-10T14:18:43.622Z,25.70
2018-07-10T14:28:39.166Z,26.40
2018-07-10T14:31:08.306Z,26.80
2018-07-10T14:33:37.604Z,26.50
2018-07-10T14:36:06.778Z,26.00
2018-07-10T14:38:39.198Z,26.30
2018-07-10T14:41:08.842Z,26.30
2018-07-10T14:43:41.608Z,26.10
2018-07-10T14:46:17.434Z,25.60
2018-07-10T14:48:50.865Z,25.20
2018-07-10T14:51:44.688Z,24.90
2018-07-10T14:54:16.076Z,25.00
2018-07-10T14:56:46.308Z,25.10
2018-07-10T14:59:15.733Z,25.10
2018-07-10T15:04:13.877Z,24.70
2018-07-10T15:06:43.067Z,24.70
2018-07-10T15:09:12.217Z,24.50
2018-07-10T15:11:42.185Z,24.20
2018-07-10T15:14:12.229Z,24.00
2018-07-10T15:16:46.622Z,23.90
2018-07-10T15:19:16.809Z,23.80
2018-07-10T15:21:45.937Z,23.70
2018-07-10T15:24:15.147Z,23.80
2018-07-10T15:26:48.136Z,23.80
2018-07-10T15:29:23.167Z,23.80
2018-07-10T15:31:52.517Z,23.80
2018-07-10T15:34:21.645Z,23.70
2018-07-10T15:36:50.823Z,23.80
2018-07-10T15:39:20.337Z,23.80
2018-07-10T15:41:50.316Z,23.50
2018-07-10T15:44:19.404Z,23.50
2018-07-10T15:46:48.737Z,23.40
2018-07-10T15:49:17.969Z,23.50
2018-07-10T15:51:47.252Z,23.50
2018-07-10T15:56:45.337Z,23.60
2018-07-10T15:59:14.635Z,23.70
2018-07-10T16:01:43.979Z,23.50
2018-07-10T16:04:13.211Z,23.50
2018-07-10T16:09:17.345Z,23.50
2018-07-10T16:14:17.144Z,24.20
2018-07-10T16:16:47.769Z,24.40
2018-07-10T16:19:23.519Z,24.70
2018-07-10T16:21:59.119Z,24.70
2018-07-10T16:24:29.441Z,25.20
2018-07-10T16:26:58.673Z,25.00
2018-07-10T16:29:27.875Z,24.60
2018-07-10T16:32:00.252Z,24.30
2018-07-10T16:34:29.480Z,24.50
2018-07-10T16:36:58.779Z,24.40
2018-07-10T16:39:28.018Z,24.00
2018-07-10T16:42:02.373Z,24.30
2018-07-10T16:44:31.847Z,24.00
2018-07-10T16:47:09.311Z,24.20
2018-07-10T16:49:44.183Z,23.70
2018-07-10T16:52:21.527Z,23.10
2018-07-10T16:54:50.874Z,22.80
2018-07-10T16:57:20.065Z,22.90
2018-07-10T16:59:49.357Z,23.00
2018-07-10T17:02:18.562Z,22.90
2018-07-10T17:04:47.765Z,23.00
2018-07-10T17:07:17.037Z,23.10
2018-07-10T17:09:46.366Z,23.40
2018-07-10T17:14:55.362Z,23.90
2018-07-10T17:17:24.557Z,23.50
2018-07-10T17:19:54.662Z,23.70
2018-07-10T17:22:24.660Z,23.50
2018-07-10T17:24:54.986Z,23.10
2018-07-10T17:27:29.506Z,22.90
2018-07-10T17:29:59.092Z,22.90
2018-07-10T17:32:28.296Z,23.00
2018-07-10T17:34:57.679Z,23.40
2018-07-10T17:37:27.230Z,23.50
2018-07-10T17:40:01.457Z,23.70
2018-07-10T17:42:30.757Z,23.40
2018-07-10T17:45:00.095Z,23.70
2018-07-10T17:49:58.749Z,22.90
2018-07-10T17:54:56.649Z,22.60
2018-07-10T17:57:26.451Z,23.00
2018-07-10T17:59:57.531Z,23.10
2018-07-10T18:02:27.157Z,23.10
2018-07-10T18:04:56.341Z,22.90
2018-07-10T18:07:25.862Z,23.00
2018-07-10T18:09:55.201Z,22.80
2018-07-10T18:12:24.786Z,22.70
2018-07-10T18:14:53.989Z,22.50
2018-07-10T18:17:23.953Z,22.50
2018-07-10T18:19:53.524Z,22.40
2018-07-10T18:22:22.696Z,22.30
2018-07-10T18:24:51.938Z,22.50
2018-07-10T18:27:21.042Z,22.60
2018-07-10T18:29:50.235Z,22.60
2018-07-10T18:32:19.585Z,22.50
2018-07-10T18:34:48.799Z,22.50
2018-07-10T18:37:17.902Z,22.50
2018-07-10T18:42:15.955Z,22.30
2018-07-10T18:44:45.809Z,22.10
2018-07-10T18:49:45.040Z,21.80
2018-07-10T18:52:14.291Z,21.70
2018-07-10T18:54:43.635Z,21.70
2018-07-10T18:59:53.914Z,21.30
2018-07-10T19:02:41.229Z,21.30
2018-07-10T19:05:10.489Z,21.40
2018-07-10T19:10:09.976Z,21.40
2018-07-10T19:12:39.867Z,21.40
2018-07-10T19:15:09.120Z,21.10
2018-07-10T19:17:38.439Z,21.10
2018-07-10T19:20:10.672Z,21.10
2018-07-10T19:23:22.988Z,21.10
2018-07-10T19:25:52.301Z,21.10
2018-07-10T19:28:21.507Z,21.10
2018-07-10T19:31:00.074Z,21.10
2018-07-10T19:33:29.395Z,20.90
2018-07-10T19:35:58.785Z,20.90
2018-07-10T19:40:56.594Z,20.90
2018-07-10T19:43:25.960Z,20.80
2018-07-10T19:45:55.622Z,20.70
2018-07-10T19:48:24.750Z,20.70
2018-07-10T19:50:54.054Z,20.60
2018-07-10T19:53:23.225Z,20.60
2018-07-10T19:55:52.414Z,20.40
2018-07-10T19:58:29.275Z,20.40
2018-07-10T20:01:22.315Z,20.40
2018-07-10T20:04:03.532Z,20.40
2018-07-10T20:07:44.980Z,20.40
2018-07-10T20:10:16.968Z,20.50
2018-07-10T20:13:01.246Z,20.50
2018-07-10T20:15:54.380Z,20.40
2018-07-10T20:18:28.946Z,20.40
2018-07-10T20:21:04.033Z,20.40
2018-07-10T20:23:47.923Z,20.50
2018-07-10T20:27:27.164Z,20.40
2018-07-10T20:31:10.270Z,20.40
2018-07-10T20:33:44.230Z,20.30
2018-07-10T20:36:13.472Z,20.30
2018-07-10T20:38:42.793Z,20.20
2018-07-10T20:41:12.026Z,20.20
2018-07-10T20:43:45.247Z,20.20
2018-07-10T20:46:15.934Z,20.20
2018-07-10T20:48:53.167Z,20.20
2018-07-10T20:51:24.885Z,20.20
2018-07-10T20:54:22.856Z,20.20
2018-07-10T20:56:57.150Z,20.10
2018-07-10T20:59:44.844Z,20.00
2018-07-10T21:02:49.650Z,20.00
2018-07-10T21:05:31.328Z,20.00
2018-07-10T21:08:03.366Z,20.10
2018-07-10T21:10:42.506Z,20.00
2018-07-10T21:13:19.500Z,20.00
2018-07-10T21:15:56.566Z,20.00
2018-07-10T21:18:33.660Z,20.00
2018-07-10T21:21:13.509Z,19.80
2018-07-10T21:24:09.420Z,19.80
2018-07-10T21:26:49.698Z,19.80
2018-07-10T21:29:30.966Z,19.70
2018-07-10T21:32:05.209Z,19.70
2018-07-10T21:34:44.029Z,19.70
2018-07-10T21:37:38.645Z,19.60
2018-07-10T21:40:27.644Z,19.60
2018-07-10T21:43:07.204Z,19.50
2018-07-10T21:46:02.610Z,19.50
2018-07-10T21:48:40.135Z,19.40
2018-07-10T21:51:09.479Z,19.40
2018-07-10T21:58:36.978Z,19.10
2018-07-10T22:01:43.596Z,19.10
2018-07-10T22:04:16.490Z,19.10
2018-07-10T22:06:48.235Z,19.10
2018-07-10T22:09:17.727Z,19.00
2018-07-10T22:11:47.702Z,19.00
2018-07-10T22:14:17.612Z,19.00
2018-07-10T22:16:47.084Z,18.90
2018-07-10T22:19:25.844Z,18.90
2018-07-10T22:24:25.875Z,18.80
2018-07-10T22:26:57.426Z,18.80
2018-07-10T22:32:07.032Z,18.70
2018-07-10T22:34:36.217Z,18.70
2018-07-10T22:37:05.586Z,18.60
2018-07-10T22:39:34.781Z,18.50
2018-07-10T22:42:03.982Z,18.60
2018-07-10T22:47:05.800Z,18.50
2018-07-10T22:49:35.038Z,18.50
2018-07-10T22:52:04.453Z,18.40
2018-07-10T22:54:36.883Z,18.50
2018-07-10T22:57:09.157Z,18.50
2018-07-10T22:59:38.522Z,18.50
2018-07-10T23:02:08.398Z,18.40
2018-07-10T23:04:37.922Z,18.30
2018-07-10T23:07:07.733Z,18.40
2018-07-10T23:12:05.891Z,18.30
2018-07-10T23:14:35.362Z,18.30
2018-07-10T23:17:04.985Z,18.30
2018-07-10T23:19:34.692Z,18.30
2018-07-10T23:22:03.967Z,18.20
2018-07-10T23:24:33.286Z,18.20
2018-07-10T23:27:02.475Z,18.20
2018-07-10T23:29:35.997Z,18.20
2018-07-10T23:32:07.445Z,18.10
2018-07-10T23:34:36.728Z,18.10
2018-07-10T23:37:12.689Z,18.00
2018-07-10T23:39:45.817Z,18.00
2018-07-10T23:42:23.850Z,17.90
2018-07-10T23:44:53.256Z,17.80
2018-07-10T23:47:26.569Z,17.80
2018-07-10T23:50:06.199Z,17.70
2018-07-10T23:54:43.350Z,17.60
2018-07-10T23:57:12.858Z,17.60
2018-07-10T23:59:42.071Z,17.50
